createdAt,value
2023-03-08T00:01:05.707Z,8.09
2023-03-08T00:03:35.350Z,8.17
2023-03-08T00:06:06.113Z,8.02
2023-03-08T00:08:34.530Z,7.62
2023-03-08T00:11:07.037Z,7.90
2023-03-08T00:13:36.096Z,7.86
2023-03-08T00:16:06.787Z,7.90
2023-03-08T00:18:38.010Z,7.79
2023-03-08T00:21:08.278Z,7.75
2023-03-08T00:23:36.979Z,7.79
2023-03-08T00:26:06.444Z,7.86
2023-03-08T00:28:35.259Z,7.63
2023-03-08T00:31:06.268Z,7.69
2023-03-08T00:33:37.208Z,7.85
2023-03-08T00:36:07.137Z,7.76
2023-03-08T00:38:37.487Z,7.71
2023-03-08T00:41:06.261Z,7.68
2023-03-08T00:43:35.427Z,7.81
2023-03-08T00:46:03.572Z,7.78
2023-03-08T00:48:31.633Z,7.73
2023-03-08T00:51:01.705Z,7.59
2023-03-08T00:53:30.332Z,7.58
2023-03-08T00:55:59.546Z,7.47
2023-03-08T00:58:30.207Z,7.39
2023-03-08T01:00:59.200Z,7.54
2023-03-08T01:03:27.950Z,7.50
2023-03-08T01:05:57.858Z,7.58
2023-03-08T01:08:28.544Z,7.54
2023-03-08T01:10:58.928Z,7.59
2023-03-08T01:13:28.410Z,7.61
2023-03-08T01:15:57.087Z,7.61
2023-03-08T01:18:25.888Z,7.62
2023-03-08T01:20:58.398Z,7.49
2023-03-08T01:23:28.706Z,7.63
2023-03-08T01:26:00.898Z,7.64
2023-03-08T01:28:31.745Z,7.61
2023-03-08T01:31:03.645Z,7.68
2023-03-08T01:33:31.917Z,7.61
2023-03-08T01:36:00.594Z,7.68
2023-03-08T01:38:30.208Z,7.06
2023-03-08T01:40:58.785Z,7.05
2023-03-08T01:43:29.535Z,7.06
2023-03-08T01:46:12.118Z,7.15
2023-03-08T01:48:45.665Z,7.08
2023-03-08T01:51:20.247Z,7.14
2023-03-08T01:53:50.392Z,7.24
2023-03-08T01:56:20.916Z,7.30
2023-03-08T01:58:51.564Z,7.29
2023-03-08T02:01:22.140Z,7.39
2023-03-08T02:03:50.641Z,7.21
2023-03-08T02:06:20.571Z,7.28
2023-03-08T02:08:50.270Z,7.31
2023-03-08T02:11:20.987Z,7.27
2023-03-08T02:13:51.063Z,7.25
2023-03-08T02:16:19.935Z,7.22
2023-03-08T02:18:54.143Z,7.12
2023-03-08T02:21:22.435Z,6.89
2023-03-08T02:23:52.470Z,7.08
2023-03-08T02:26:21.351Z,7.08
2023-03-08T02:28:50.162Z,6.89
2023-03-08T02:31:18.585Z,7.00
2023-03-08T02:33:46.807Z,7.16
2023-03-08T02:36:14.888Z,7.09
2023-03-08T02:38:43.162Z,7.13
2023-03-08T02:41:12.723Z,6.90
2023-03-08T02:43:41.326Z,6.74
2023-03-08T02:46:12.779Z,6.77
2023-03-08T02:48:40.906Z,6.73
2023-03-08T02:51:09.208Z,6.63
2023-03-08T02:53:37.301Z,6.44
2023-03-08T02:56:06.037Z,6.32
2023-03-08T02:58:35.596Z,6.09
2023-03-08T03:01:03.730Z,6.02
2023-03-08T03:03:32.568Z,6.01
2023-03-08T03:06:01.081Z,5.81
2023-03-08T03:08:31.522Z,5.66
2023-03-08T03:10:59.728Z,5.41
2023-03-08T03:13:28.157Z,5.28
2023-03-08T03:15:58.207Z,5.34
2023-03-08T03:18:26.386Z,5.57
2023-03-08T03:20:54.490Z,5.55
2023-03-08T03:23:22.530Z,5.65
2023-03-08T03:25:50.924Z,5.91
2023-03-08T03:28:19.535Z,5.94
2023-03-08T03:30:47.733Z,6.07
2023-03-08T03:33:17.583Z,6.15
2023-03-08T03:35:45.765Z,6.20
2023-03-08T03:38:13.988Z,6.25
2023-03-08T03:40:42.195Z,6.28
2023-03-08T03:43:10.287Z,6.23
2023-03-08T03:45:38.296Z,5.78
2023-03-08T03:48:06.798Z,5.32
2023-03-08T03:50:36.377Z,5.09
2023-03-08T03:53:04.390Z,5.07
2023-03-08T03:55:32.764Z,5.05
2023-03-08T03:58:00.996Z,5.19
2023-03-08T04:00:29.071Z,5.09
2023-03-08T04:02:57.323Z,4.87
2023-03-08T04:05:25.733Z,4.67
2023-03-08T04:07:55.283Z,4.92
2023-03-08T04:10:23.506Z,4.87
2023-03-08T04:12:51.644Z,4.91
2023-03-08T04:15:19.701Z,4.67
2023-03-08T04:17:47.828Z,4.91
2023-03-08T04:20:15.961Z,4.70
2023-03-08T04:22:44.102Z,4.71
2023-03-08T04:25:13.692Z,4.65
2023-03-08T04:27:41.873Z,4.75
2023-03-08T04:30:11.310Z,4.81
2023-03-08T04:32:39.339Z,4.87
2023-03-08T04:35:07.914Z,4.79
2023-03-08T04:37:37.516Z,4.89
2023-03-08T04:40:09.496Z,4.92
2023-03-08T04:42:40.978Z,4.92
2023-03-08T04:45:10.086Z,5.00
2023-03-08T04:47:38.138Z,4.96
2023-03-08T04:50:06.718Z,4.93
2023-03-08T04:52:34.795Z,4.95
2023-03-08T04:55:03.224Z,5.13
2023-03-08T04:57:31.304Z,5.04
2023-03-08T05:00:00.720Z,5.09
2023-03-08T05:02:28.744Z,5.18
2023-03-08T05:04:56.821Z,5.26
2023-03-08T05:07:24.962Z,5.28
2023-03-08T05:09:53.056Z,5.43
2023-03-08T05:12:21.133Z,5.40
2023-03-08T05:14:49.198Z,5.46
2023-03-08T05:17:18.830Z,5.53
2023-03-08T05:19:47.013Z,5.44
2023-03-08T05:22:15.383Z,5.64
2023-03-08T05:24:43.526Z,5.77
2023-03-08T05:27:11.586Z,6.00
2023-03-08T05:29:39.829Z,6.27
2023-03-08T05:32:08.364Z,6.48
2023-03-08T05:34:38.180Z,6.67
2023-03-08T05:37:06.283Z,6.71
2023-03-08T05:39:34.199Z,7.04
2023-03-08T05:42:02.165Z,7.30
2023-03-08T05:44:30.787Z,7.46
2023-03-08T05:46:58.852Z,7.64
2023-03-08T05:49:26.995Z,7.80
2023-03-08T05:51:56.468Z,8.06
2023-03-08T05:54:24.586Z,8.33
2023-03-08T05:56:52.662Z,8.50
2023-03-08T05:59:20.799Z,8.93
2023-03-08T06:01:48.920Z,9.26
2023-03-08T06:04:16.902Z,9.64
2023-03-08T06:06:44.899Z,9.76
2023-03-08T06:09:14.194Z,10.08
2023-03-08T06:11:42.222Z,10.52
2023-03-08T06:14:12.170Z,10.68
2023-03-08T06:16:41.076Z,11.13
2023-03-08T06:19:09.142Z,11.34
2023-03-08T06:21:37.099Z,11.58
2023-03-08T06:24:05.044Z,11.81
2023-03-08T06:26:34.411Z,11.98
2023-03-08T06:29:02.326Z,12.14
2023-03-08T06:31:30.425Z,12.25
2023-03-08T06:33:58.330Z,12.40
2023-03-08T06:36:26.235Z,12.39
2023-03-08T06:38:54.191Z,12.32
2023-03-08T06:41:22.180Z,12.39
2023-03-08T06:43:51.501Z,12.36
2023-03-08T06:46:20.572Z,12.32
2023-03-08T06:48:49.550Z,12.46
2023-03-08T06:51:18.927Z,12.61
2023-03-08T06:53:47.429Z,12.60
2023-03-08T06:56:17.338Z,12.53
2023-03-08T06:58:45.420Z,12.70
2023-03-08T07:01:15.146Z,12.84
2023-03-08T07:03:45.395Z,13.01
2023-03-08T07:06:13.490Z,13.24
2023-03-08T07:08:42.188Z,13.54
2023-03-08T07:11:10.955Z,13.70
2023-03-08T07:13:39.677Z,13.85
2023-03-08T07:16:09.721Z,13.91
2023-03-08T07:18:39.842Z,14.05
2023-03-08T07:21:08.514Z,14.30
2023-03-08T07:23:36.631Z,14.48
2023-03-08T07:26:06.391Z,14.42
2023-03-08T07:28:34.737Z,14.55
2023-03-08T07:31:02.836Z,14.59
2023-03-08T07:33:30.974Z,14.50
2023-03-08T07:36:03.262Z,14.79
2023-03-08T07:38:31.812Z,14.96
2023-03-08T07:40:59.782Z,14.93
2023-03-08T07:43:30.104Z,15.04
2023-03-08T07:46:02.091Z,15.14
2023-03-08T07:48:30.665Z,15.44
2023-03-08T07:51:04.261Z,15.53
2023-03-08T07:53:33.134Z,15.66
2023-03-08T07:56:02.097Z,15.38
2023-03-08T07:58:30.728Z,15.53
2023-03-08T08:00:58.944Z,15.68
2023-03-08T08:03:27.148Z,15.93
2023-03-08T08:05:55.607Z,16.10
2023-03-08T08:08:25.046Z,16.12
2023-03-08T08:10:53.376Z,16.42
2023-03-08T08:13:21.443Z,16.47
2023-03-08T08:15:58.552Z,16.64
2023-03-08T08:18:26.565Z,16.47
2023-03-08T08:21:02.798Z,16.63
2023-03-08T08:23:33.488Z,16.29
2023-03-08T08:26:02.163Z,16.42
2023-03-08T08:28:30.517Z,16.47
2023-03-08T08:31:01.228Z,16.44
2023-03-08T08:33:29.877Z,16.75
2023-03-08T08:35:58.165Z,16.33
2023-03-08T08:38:26.753Z,16.10
2023-03-08T08:40:56.112Z,16.48
2023-03-08T08:43:24.157Z,16.48
2023-03-08T08:45:57.013Z,16.57
2023-03-08T08:48:25.436Z,16.76
2023-03-08T08:50:53.969Z,16.89
2023-03-08T08:53:23.133Z,17.03
2023-03-08T08:55:51.060Z,17.31
2023-03-08T08:58:20.634Z,17.09
2023-03-08T09:00:49.717Z,17.16
2023-03-08T09:03:18.206Z,16.96
2023-03-08T09:05:46.799Z,17.34
2023-03-08T09:08:14.780Z,17.39
2023-03-08T09:10:43.274Z,17.61
2023-03-08T09:13:13.286Z,17.53
2023-03-08T09:15:42.901Z,17.55
2023-03-08T09:18:10.947Z,17.22
2023-03-08T09:20:38.946Z,17.59
2023-03-08T09:23:08.646Z,17.72
2023-03-08T09:25:37.146Z,18.05
2023-03-08T09:28:05.474Z,18.26
2023-03-08T09:30:35.021Z,18.11
2023-03-08T09:33:04.788Z,17.29
2023-03-08T09:35:32.865Z,16.83
2023-03-08T09:38:02.084Z,17.05
2023-03-08T09:40:36.215Z,17.51
2023-03-08T09:43:08.440Z,17.31
2023-03-08T09:45:36.871Z,17.86
2023-03-08T09:48:13.893Z,18.22
2023-03-08T09:50:47.589Z,18.46
2023-03-08T09:53:24.499Z,18.63
2023-03-08T09:55:56.495Z,18.43
2023-03-08T09:58:33.308Z,18.11
2023-03-08T10:01:13.749Z,18.23
2023-03-08T10:03:58.169Z,18.52
2023-03-08T10:06:36.973Z,18.64
2023-03-08T10:09:13.936Z,17.81
2023-03-08T10:11:48.402Z,17.81
2023-03-08T10:14:20.993Z,18.38
2023-03-08T10:16:55.181Z,18.46
2023-03-08T10:19:30.212Z,18.46
2023-03-08T10:22:01.696Z,17.90
2023-03-08T10:24:36.336Z,18.13
2023-03-08T10:27:15.312Z,18.00
2023-03-08T10:29:49.752Z,16.95
2023-03-08T10:32:18.118Z,16.47
2023-03-08T10:34:48.226Z,16.66
2023-03-08T10:37:16.980Z,16.89
2023-03-08T10:39:54.914Z,16.80
2023-03-08T10:42:25.557Z,16.24
2023-03-08T10:44:56.760Z,16.24
2023-03-08T10:47:27.770Z,16.26
2023-03-08T10:50:15.512Z,16.61
2023-03-08T10:52:45.381Z,16.93
2023-03-08T10:55:16.250Z,16.90
2023-03-08T10:57:53.108Z,16.98
2023-03-08T11:00:35.233Z,17.26
2023-03-08T11:03:12.330Z,17.17
2023-03-08T11:05:51.924Z,16.50
2023-03-08T11:08:23.316Z,17.14
2023-03-08T11:11:02.086Z,17.22
2023-03-08T11:13:33.131Z,17.71
2023-03-08T11:16:20.329Z,18.00
2023-03-08T11:19:03.379Z,17.48
2023-03-08T11:21:44.902Z,17.55
2023-03-08T11:24:23.322Z,17.36
2023-03-08T11:27:05.693Z,17.16
2023-03-08T11:29:43.792Z,18.01
2023-03-08T11:32:29.603Z,18.25
2023-03-08T11:35:12.590Z,18.51
2023-03-08T11:37:47.751Z,18.62
2023-03-08T11:40:23.871Z,18.28
2023-03-08T11:43:13.785Z,17.80
2023-03-08T11:45:51.068Z,17.55
2023-03-08T11:48:49.495Z,17.93
2023-03-08T11:51:23.948Z,18.09
2023-03-08T11:54:05.568Z,18.28
2023-03-08T11:56:45.995Z,18.15
2023-03-08T11:59:25.203Z,17.66
2023-03-08T12:01:57.379Z,17.77
2023-03-08T12:04:32.571Z,17.35
2023-03-08T12:07:04.554Z,17.49
2023-03-08T12:09:40.453Z,17.76
2023-03-08T12:12:17.919Z,17.96
2023-03-08T12:14:53.031Z,18.28
2023-03-08T12:17:26.107Z,18.43
2023-03-08T12:19:54.634Z,17.89
2023-03-08T12:22:36.282Z,17.74
2023-03-08T12:25:14.931Z,18.12
2023-03-08T12:27:48.680Z,18.32
2023-03-08T12:30:31.057Z,18.42
2023-03-08T12:33:00.583Z,18.48
2023-03-08T12:35:32.425Z,18.56
2023-03-08T12:38:01.839Z,18.62
2023-03-08T12:40:39.202Z,18.58
2023-03-08T12:43:10.950Z,18.22
2023-03-08T12:45:40.352Z,18.00
2023-03-08T12:48:21.058Z,18.27
2023-03-08T12:51:00.377Z,18.24
2023-03-08T12:53:35.230Z,18.34
2023-03-08T12:56:08.438Z,17.87
2023-03-08T12:58:40.477Z,17.82
2023-03-08T13:01:24.936Z,17.83
2023-03-08T13:03:53.307Z,18.06
2023-03-08T13:06:55.358Z,18.09
2023-03-08T13:09:28.479Z,18.13
2023-03-08T13:12:03.262Z,18.08
2023-03-08T13:14:41.058Z,18.16
2023-03-08T13:17:34.815Z,18.18
2023-03-08T13:20:13.583Z,18.25
2023-03-08T13:22:51.680Z,18.27
2023-03-08T13:25:32.413Z,18.12
2023-03-08T13:28:06.285Z,17.66
2023-03-08T13:30:37.300Z,17.33
2023-03-08T13:33:09.630Z,17.49
2023-03-08T13:35:37.727Z,17.43
2023-03-08T13:38:05.879Z,17.45
2023-03-08T13:40:34.101Z,17.53
2023-03-08T13:43:05.838Z,17.72
2023-03-08T13:45:34.253Z,17.75
2023-03-08T13:48:07.817Z,17.80
2023-03-08T13:50:38.944Z,17.75
2023-03-08T13:53:11.752Z,17.60
2023-03-08T13:55:43.471Z,17.53
2023-03-08T13:58:21.673Z,17.10
2023-03-08T14:01:02.118Z,17.44
2023-03-08T14:03:32.580Z,17.27
2023-03-08T14:06:01.030Z,17.23
2023-03-08T14:08:29.652Z,17.33
2023-03-08T14:11:01.094Z,17.35
2023-03-08T14:13:33.530Z,17.14
2023-03-08T14:16:03.225Z,16.77
2023-03-08T14:18:34.662Z,16.79
2023-03-08T14:21:06.744Z,16.88
2023-03-08T14:23:41.364Z,16.75
2023-03-08T14:26:25.740Z,16.65
2023-03-08T14:29:12.167Z,16.44
2023-03-08T14:31:41.751Z,16.29
2023-03-08T14:34:21.232Z,16.38
2023-03-08T14:36:56.569Z,16.17
2023-03-08T14:39:27.076Z,16.20
2023-03-08T14:41:55.980Z,16.28
2023-03-08T14:44:28.454Z,16.46
2023-03-08T14:47:00.033Z,16.42
2023-03-08T14:49:30.528Z,16.49
2023-03-08T14:51:59.508Z,16.46
2023-03-08T14:54:33.766Z,16.32
2023-03-08T14:57:14.551Z,16.19
2023-03-08T14:59:45.256Z,16.18
2023-03-08T15:02:14.817Z,16.13
2023-03-08T15:04:43.764Z,16.07
2023-03-08T15:07:19.783Z,16.00
2023-03-08T15:09:48.438Z,15.70
2023-03-08T15:12:16.844Z,15.67
2023-03-08T15:14:46.599Z,15.64
2023-03-08T15:17:14.606Z,15.46
2023-03-08T15:19:43.349Z,15.57
2023-03-08T15:22:14.580Z,15.44
2023-03-08T15:24:42.900Z,15.45
2023-03-08T15:27:15.654Z,15.30
2023-03-08T15:29:45.533Z,15.18
2023-03-08T15:32:13.454Z,15.11
2023-03-08T15:34:42.251Z,14.91
2023-03-08T15:37:15.540Z,14.79
2023-03-08T15:39:43.722Z,14.70
2023-03-08T15:42:12.580Z,14.08
2023-03-08T15:44:40.659Z,14.74
2023-03-08T15:47:11.613Z,14.64
2023-03-08T15:49:39.683Z,14.37
2023-03-08T15:52:08.736Z,14.34
2023-03-08T15:54:37.210Z,14.42
2023-03-08T15:57:05.612Z,14.32
2023-03-08T15:59:33.804Z,14.36
2023-03-08T16:02:02.516Z,14.34
2023-03-08T16:04:32.521Z,14.35
2023-03-08T16:07:00.518Z,14.16
2023-03-08T16:09:28.627Z,14.06
2023-03-08T16:11:56.853Z,13.98
2023-03-08T16:14:24.832Z,13.91
2023-03-08T16:16:53.117Z,13.78
2023-03-08T16:19:21.984Z,13.66
2023-03-08T16:21:52.827Z,13.44
2023-03-08T16:24:20.804Z,13.35
2023-03-08T16:26:48.983Z,13.29
2023-03-08T16:29:17.390Z,13.12
2023-03-08T16:31:45.632Z,13.13
2023-03-08T16:34:14.619Z,13.03
2023-03-08T16:36:42.992Z,12.85
2023-03-08T16:39:12.567Z,12.71
2023-03-08T16:41:41.600Z,12.64
2023-03-08T16:44:19.638Z,12.50
2023-03-08T16:46:47.625Z,12.40
2023-03-08T16:49:16.679Z,12.26
2023-03-08T16:51:44.843Z,12.18
2023-03-08T16:54:14.968Z,12.10
2023-03-08T16:56:44.700Z,12.03
2023-03-08T16:59:14.899Z,11.99
2023-03-08T17:01:43.340Z,11.96
2023-03-08T17:04:11.941Z,11.88
2023-03-08T17:06:40.134Z,11.83
2023-03-08T17:09:08.147Z,11.65
2023-03-08T17:11:37.419Z,11.71
2023-03-08T17:14:08.140Z,11.76
2023-03-08T17:16:36.959Z,11.68
2023-03-08T17:19:07.068Z,11.74
2023-03-08T17:21:38.215Z,11.85
2023-03-08T17:24:08.417Z,11.91
2023-03-08T17:26:42.447Z,11.90
2023-03-08T17:29:10.789Z,11.94
2023-03-08T17:31:40.948Z,11.94
2023-03-08T17:34:09.240Z,11.95
2023-03-08T17:36:37.302Z,12.00
2023-03-08T17:39:05.370Z,12.00
2023-03-08T17:41:34.410Z,11.95
2023-03-08T17:44:04.023Z,11.95
2023-03-08T17:46:32.095Z,11.78
2023-03-08T17:49:00.138Z,11.44
2023-03-08T17:51:31.500Z,11.30
2023-03-08T17:54:01.215Z,11.44
2023-03-08T17:56:31.773Z,11.52
2023-03-08T17:59:01.562Z,11.51
2023-03-08T18:01:32.096Z,11.56
2023-03-08T18:04:00.439Z,11.59
2023-03-08T18:06:31.129Z,11.55
2023-03-08T18:09:00.844Z,11.50
2023-03-08T18:11:29.583Z,11.48
2023-03-08T18:13:58.153Z,11.28
2023-03-08T18:16:26.368Z,11.20
2023-03-08T18:18:55.755Z,11.20
2023-03-08T18:21:23.673Z,11.09
2023-03-08T18:23:54.686Z,11.08
2023-03-08T18:26:23.006Z,11.05
2023-03-08T18:28:51.196Z,10.92
2023-03-08T18:31:23.292Z,10.76
2023-03-08T18:33:54.614Z,10.34
2023-03-08T18:36:24.833Z,9.99
2023-03-08T18:38:52.785Z,10.27
2023-03-08T18:41:23.293Z,10.23
2023-03-08T18:43:52.129Z,10.32
2023-03-08T18:46:22.497Z,10.28
2023-03-08T18:48:52.097Z,10.21
2023-03-08T18:51:20.026Z,10.15
2023-03-08T18:53:49.465Z,10.26
2023-03-08T18:56:17.529Z,10.33
2023-03-08T18:58:45.462Z,10.31
2023-03-08T19:01:15.155Z,10.34
2023-03-08T19:03:44.353Z,10.32
2023-03-08T19:06:13.759Z,10.38
2023-03-08T19:08:42.031Z,10.33
2023-03-08T19:11:16.852Z,10.28
2023-03-08T19:13:45.061Z,10.26
2023-03-08T19:16:19.647Z,10.27
2023-03-08T19:18:48.037Z,10.37
2023-03-08T19:21:17.563Z,10.28
2023-03-08T19:23:45.631Z,10.27
2023-03-08T19:26:35.857Z,10.17
2023-03-08T19:29:05.642Z,9.90
2023-03-08T19:31:34.108Z,9.75
2023-03-08T19:34:02.716Z,9.65
2023-03-08T19:36:30.628Z,9.62
2023-03-08T19:38:58.640Z,9.55
2023-03-08T19:41:28.116Z,9.41
2023-03-08T19:43:56.032Z,9.47
2023-03-08T19:46:23.994Z,9.61
2023-03-08T19:48:52.316Z,9.76
2023-03-08T19:51:21.614Z,9.81
2023-03-08T19:53:49.552Z,9.69
2023-03-08T19:56:19.778Z,9.65
2023-03-08T19:58:49.779Z,9.62
2023-03-08T20:01:19.873Z,9.67
2023-03-08T20:03:48.489Z,9.61
2023-03-08T20:06:24.283Z,9.51
2023-03-08T20:08:53.215Z,9.44
2023-03-08T20:11:21.982Z,9.35
2023-03-08T20:13:51.752Z,9.50
2023-03-08T20:16:20.965Z,9.57
2023-03-08T20:18:50.352Z,9.65
2023-03-08T20:21:19.244Z,9.52
2023-03-08T20:23:51.022Z,9.69
2023-03-08T20:26:19.125Z,9.69
2023-03-08T20:28:47.147Z,9.63
2023-03-08T20:31:16.622Z,9.66
2023-03-08T20:33:45.207Z,9.67
2023-03-08T20:36:13.291Z,9.63
2023-03-08T20:38:41.727Z,9.69
2023-03-08T20:41:13.160Z,9.73
2023-03-08T20:43:41.204Z,9.71
2023-03-08T20:46:11.747Z,9.82
2023-03-08T20:48:44.608Z,9.78
2023-03-08T20:51:15.106Z,9.72
2023-03-08T20:53:43.414Z,9.79
2023-03-08T20:56:14.691Z,9.48
2023-03-08T20:58:43.285Z,9.08
2023-03-08T21:01:12.990Z,9.31
2023-03-08T21:03:43.136Z,9.59
2023-03-08T21:06:12.800Z,9.61
2023-03-08T21:08:40.889Z,9.46
2023-03-08T21:11:08.938Z,9.41
2023-03-08T21:13:37.158Z,9.52
2023-03-08T21:16:06.747Z,9.53
2023-03-08T21:18:34.794Z,9.37
2023-03-08T21:21:04.420Z,9.23
2023-03-08T21:23:32.450Z,9.33
2023-03-08T21:26:01.447Z,8.82
2023-03-08T21:28:29.518Z,8.32
2023-03-08T21:30:57.623Z,8.90
2023-03-08T21:33:25.573Z,9.07
2023-03-08T21:35:53.857Z,9.15
2023-03-08T21:38:24.758Z,9.17
2023-03-08T21:40:52.797Z,9.18
2023-03-08T21:43:20.833Z,9.16
2023-03-08T21:45:49.363Z,9.22
2023-03-08T21:48:17.265Z,9.25
2023-03-08T21:50:45.289Z,9.23
2023-03-08T21:53:13.612Z,9.21
2023-03-08T21:55:43.336Z,9.20
2023-03-08T21:58:11.252Z,9.17
2023-03-08T22:00:39.279Z,9.15
2023-03-08T22:03:07.277Z,9.10
2023-03-08T22:05:35.180Z,9.16
2023-03-08T22:08:03.178Z,9.11
2023-03-08T22:10:31.161Z,9.11
2023-03-08T22:13:00.939Z,9.03
2023-03-08T22:15:29.005Z,8.96
2023-03-08T22:17:57.297Z,8.85
2023-03-08T22:20:25.368Z,8.89
2023-03-08T22:22:53.416Z,9.02
2023-03-08T22:25:21.515Z,9.13
2023-03-08T22:27:49.791Z,9.18
2023-03-08T22:30:20.818Z,9.07
2023-03-08T22:32:48.992Z,9.00
2023-03-08T22:35:17.284Z,9.02
2023-03-08T22:37:45.819Z,9.05
2023-03-08T22:40:14.544Z,9.18
2023-03-08T22:42:42.450Z,9.18
2023-03-08T22:45:11.821Z,9.05
2023-03-08T22:47:41.273Z,9.14
2023-03-08T22:50:11.031Z,9.11
2023-03-08T22:52:39.142Z,9.18
2023-03-08T22:55:07.973Z,9.21
2023-03-08T22:57:38.204Z,9.05
2023-03-08T23:00:14.342Z,8.80
2023-03-08T23:02:45.115Z,8.70
2023-03-08T23:05:13.901Z,8.80
2023-03-08T23:07:41.863Z,8.74
2023-03-08T23:10:11.475Z,8.82
2023-03-08T23:12:39.769Z,8.88
2023-03-08T23:15:09.447Z,8.73
2023-03-08T23:17:37.456Z,8.55
2023-03-08T23:20:07.822Z,8.48
2023-03-08T23:22:35.727Z,8.36
2023-03-08T23:25:03.969Z,8.41
2023-03-08T23:27:31.971Z,8.37
2023-03-08T23:29:59.924Z,8.16
2023-03-08T23:32:28.016Z,7.72
2023-03-08T23:34:56.054Z,7.46
2023-03-08T23:37:25.553Z,8.06
2023-03-08T23:39:53.585Z,8.27
2023-03-08T23:42:21.535Z,8.32
2023-03-08T23:44:49.452Z,8.22
2023-03-08T23:47:17.847Z,8.00
2023-03-08T23:49:45.845Z,7.81
2023-03-08T23:52:13.717Z,7.70
2023-03-08T23:54:43.110Z,7.78
2023-03-08T23:57:11.018Z,7.79
2023-03-08T23:59:38.998Z,7.65
